Natural Bridge Station, Virginia
Current Conditions -  °F | °C
As of 12:54 PM on Thursday 29 Jan 2015 (Local Time) from KLYH Reporting Station
Clear Clear  
Wind Chill: 34°   Ceiling: Unl
Heat Index: 40°   Visibility: 10mi
Dew Point: 16°   Wind: 9mph
Humidity: 38%   Direction: 190°S
Pressure: 30.15"   Gusts: 18mph
Location:  37.62°N, 79.51°W
Report Text: KLYH 291754Z 19008G16KT 10SM CLR 04/M09 A3015 RMK AO2 SLP217 T00441089 10050 21067 58046
Loading
Personal Weather Stations






























Interactive Weather Map New forecast layout! Learn more

10-Day Weather Forecast

Advertisements
Track Severe Weather on mobile